Time;durP1;ratioP1;P1;durP2;ratioP2;P2;SDS_P1;SDS_P2;PMS_P1;PMS_P2;Temp;Humidity;BMP_temperature;BMP_pressure;BME280_temperature;BME280_humidity;BME280_pressure;Samples;Min_cycle;Max_cycle;Signal;HPM_P1;HPM_P2
2021/05/11 00:00:23;;;;;;;11.27;8.77;;;;;;;;;;6184802;23;20005;-59
2021/05/11 00:02:50;;;;;;;14.10;7.50;;;;;;;;;;6186835;23;20005;-59
2021/05/11 00:05:17;;;;;;;11.33;7.07;;;;;;;;;;6186865;23;20377;-59
2021/05/11 00:07:44;;;;;;;9.70;6.87;;;;;;;;;;6186831;23;20341;-59
2021/05/11 00:10:11;;;;;;;8.43;5.40;;;;;;;;;;6186945;23;20004;-59
2021/05/11 00:12:38;;;;;;;8.97;6.07;;;;;;;;;;6186883;23;20091;-59
2021/05/11 00:15:05;;;;;;;14.83;9.10;;;;;;;;;;6187019;23;19998;-59
2021/05/11 00:17:32;;;;;;;8.60;6.50;;;;;;;;;;6187017;23;20032;-59
2021/05/11 00:19:59;;;;;;;10.70;7.00;;;;;;;;;;6188070;23;20016;-59
2021/05/11 00:22:27;;;;;;;10.77;6.93;;;;;;;;;;6186696;23;20024;-59
2021/05/11 00:24:53;;;;;;;8.03;5.30;;;;;;;;;;6186787;23;20001;-59
2021/05/11 00:27:20;;;;;;;9.00;6.07;;;;;;;;;;6186765;23;20305;-59
2021/05/11 00:29:47;;;;;;;7.97;6.10;;;;;;;;;;6186792;23;20420;-59
2021/05/11 00:32:14;;;;;;;8.37;6.13;;;;;;;;;;6186707;23;20310;-59
2021/05/11 00:34:41;;;;;;;14.73;6.17;;;;;;;;;;6186670;23;20084;-59
2021/05/11 00:37:07;;;;;;;17.07;6.53;;;;;;;;;;6187020;23;20005;-59
2021/05/11 00:39:34;;;;;;;9.30;5.70;;;;;;;;;;6186584;23;20012;-59
2021/05/11 00:42:01;;;;;;;7.37;5.37;;;;;;;;;;6186438;23;20015;-59
2021/05/11 00:44:29;;;;;;;11.20;6.93;;;;;;;;;;6186593;23;20076;-59
2021/05/11 00:49:23;;;;;;;20.60;8.13;;;;;;;;;;6186659;23;20016;-59
2021/05/11 00:51:51;;;;;;;21.00;8.20;;;;;;;;;;6187414;23;20080;-60
2021/05/11 00:54:17;;;;;;;27.63;8.90;;;;;;;;;;6186480;23;20001;-61
2021/05/11 00:56:46;;;;;;;17.47;9.40;;;;;;;;;;6186671;23;20012;-61
2021/05/11 00:59:17;;;;;;;27.70;12.87;;;;;;;;;;6186568;23;20421;-69
2021/05/11 01:01:44;;;;;;;137.67;20.13;;;;;;;;;;6186494;23;20341;-68
2021/05/11 01:04:11;;;;;;;26.67;12.07;;;;;;;;;;6186617;23;20001;-68
2021/05/11 01:06:38;;;;;;;17.90;10.50;;;;;;;;;;6186457;23;20001;-65
2021/05/11 01:09:07;;;;;;;17.97;10.13;;;;;;;;;;6186741;23;20005;-64
2021/05/11 01:11:34;;;;;;;26.47;13.20;;;;;;;;;;6186437;23;20005;-64
2021/05/11 01:14:01;;;;;;;21.50;10.60;;;;;;;;;;6185817;23;20008;-64
2021/05/11 01:16:30;;;;;;;54.73;15.10;;;;;;;;;;6186385;23;20332;-67
2021/05/11 01:19:02;;;;;;;23.93;13.70;;;;;;;;;;6187530;23;20048;-65
2021/05/11 01:50:36;;;;;;;17.73;11.27;;;;;;;;;;6186085;23;19900;-64
2021/05/11 01:53:13;;;;;;;17.00;11.87;;;;;;;;;;6186376;23;20001;-65
2021/05/11 01:56:03;;;;;;;15.37;10.20;;;;;;;;;;6185963;23;20441;-62
2021/05/11 01:59:06;;;;;;;18.03;10.50;;;;;;;;;;6186028;23;20336;-61
2021/05/11 02:23:32;;;;;;;;;;;;;;;;;;6186335;23;20063;-63
2021/05/11 02:25:59;;;;;;;20.60;12.70;;;;;;;;;;6185616;23;20267;-62
2021/05/11 02:28:26;;;;;;;16.77;12.13;;;;;;;;;;6185574;23;20305;-62
2021/05/11 02:30:54;;;;;;;14.93;12.37;;;;;;;;;;6185506;23;20012;-63
2021/05/11 02:33:21;;;;;;;17.13;11.67;;;;;;;;;;6185740;23;20023;-63
2021/05/11 02:35:48;;;;;;;15.37;12.13;;;;;;;;;;6185724;23;20059;-62
2021/05/11 02:38:15;;;;;;;15.37;13.07;;;;;;;;;;6185669;23;20005;-62
2021/05/11 02:40:41;;;;;;;18.33;12.43;;;;;;;;;;6185591;23;20432;-62
2021/05/11 02:43:14;;;;;;;18.60;11.77;;;;;;;;;;6185625;23;20059;-62
2021/05/11 02:45:41;;;;;;;13.33;10.90;;;;;;;;;;6185497;23;20092;-63
2021/05/11 02:48:08;;;;;;;15.13;11.97;;;;;;;;;;6185584;23;20001;-61
2021/05/11 02:50:35;;;;;;;12.93;9.27;;;;;;;;;;6185527;23;20008;-61
2021/05/11 02:53:02;;;;;;;13.03;9.43;;;;;;;;;;6185573;23;20072;-60
2021/05/11 02:55:29;;;;;;;14.40;9.53;;;;;;;;;;6185446;23;20015;-61
2021/05/11 02:57:56;;;;;;;15.97;10.27;;;;;;;;;;6185603;23;20317;-61
2021/05/11 03:00:25;;;;;;;13.07;10.70;;;;;;;;;;6185283;23;20005;-61
2021/05/11 03:02:51;;;;;;;14.37;10.53;;;;;;;;;;6185350;23;20029;-61
2021/05/11 03:05:18;;;;;;;15.70;11.10;;;;;;;;;;6185433;23;20051;-61
2021/05/11 03:07:45;;;;;;;15.23;12.10;;;;;;;;;;6185404;23;19997;-61
2021/05/11 03:10:13;;;;;;;14.10;10.73;;;;;;;;;;6185369;23;20001;-61
2021/05/11 03:12:40;;;;;;;15.83;11.67;;;;;;;;;;6185433;23;20020;-61
2021/05/11 03:15:16;;;;;;;17.90;12.47;;;;;;;;;;6185129;23;20047;-61
2021/05/11 03:17:43;;;;;;;16.37;11.47;;;;;;;;;;6185210;23;20329;-61
2021/05/11 03:20:24;;;;;;;11.07;9.07;;;;;;;;;;6186231;22;20040;-61
2021/05/11 03:22:50;;;;;;;17.90;13.27;;;;;;;;;;6185324;23;20028;-61
2021/05/11 03:25:17;;;;;;;19.43;12.13;;;;;;;;;;6185238;23;20051;-61
2021/05/11 03:27:44;;;;;;;15.30;11.80;;;;;;;;;;6185254;23;20032;-62
2021/05/11 03:30:11;;;;;;;17.33;12.70;;;;;;;;;;6185139;23;20008;-62
2021/05/11 03:32:39;;;;;;;17.03;13.30;;;;;;;;;;6185102;23;20029;-62
2021/05/11 03:35:06;;;;;;;18.53;13.87;;;;;;;;;;6185109;23;20020;-61
2021/05/11 03:37:33;;;;;;;16.27;13.37;;;;;;;;;;6184852;23;19997;-61
2021/05/11 03:40:00;;;;;;;18.53;14.17;;;;;;;;;;6184902;23;20019;-61
2021/05/11 03:42:31;;;;;;;19.13;15.30;;;;;;;;;;6184965;23;20013;-61
2021/05/11 03:45:02;;;;;;;22.97;15.47;;;;;;;;;;6185200;23;20021;-62
2021/05/11 03:47:36;;;;;;;21.60;16.13;;;;;;;;;;6185230;23;20009;-61
2021/05/11 03:50:04;;;;;;;17.75;15.43;;;;;;;;;;6159075;23;20005;-61
2021/05/11 03:52:31;;;;;;;19.87;15.27;;;;;;;;;;6184999;23;20498;-62
2021/05/11 03:54:58;;;;;;;18.47;14.37;;;;;;;;;;6185089;23;20028;-62
2021/05/11 03:57:25;;;;;;;17.60;14.80;;;;;;;;;;6185164;23;20002;-60
2021/05/11 03:59:52;;;;;;;17.37;14.83;;;;;;;;;;6184948;23;20001;-60
2021/05/11 04:02:19;;;;;;;25.83;17.57;;;;;;;;;;6185081;23;20009;-60
2021/05/11 04:04:46;;;;;;;25.63;15.73;;;;;;;;;;6185045;23;19997;-63
2021/05/11 04:07:14;;;;;;;17.50;15.23;;;;;;;;;;6185134;23;20001;-63
2021/05/11 04:09:46;;;;;;;23.53;17.00;;;;;;;;;;6185212;23;20005;-62
2021/05/11 04:12:28;;;;;;;26.50;16.50;;;;;;;;;;6184897;23;20332;-62
2021/05/11 04:17:43;;;;;;;;;;;;;;;;;;6195639;23;20041;-60
2021/05/11 04:20:11;;;;;;;19.47;14.70;;;;;;;;;;6186263;23;20020;-62
2021/05/11 04:22:39;;;;;;;23.73;16.73;;;;;;;;;;6185199;23;20340;-61
2021/05/11 04:25:06;;;;;;;19.33;15.43;;;;;;;;;;6185064;23;20125;-61
2021/05/11 04:27:34;;;;;;;19.33;15.00;;;;;;;;;;6184998;23;20019;-61
2021/05/11 04:30:04;;;;;;;19.97;14.80;;;;;;;;;;6184945;23;20005;-62
2021/05/11 04:32:31;;;;;;;21.97;16.83;;;;;;;;;;6184901;23;20009;-61
2021/05/11 04:34:59;;;;;;;21.93;16.90;;;;;;;;;;6184882;23;20414;-62
2021/05/11 04:37:26;;;;;;;22.10;16.10;;;;;;;;;;6184670;23;20001;-62
2021/05/11 04:39:53;;;;;;;19.10;14.13;;;;;;;;;;6184638;23;20009;-61
2021/05/11 04:42:20;;;;;;;18.00;13.40;;;;;;;;;;6184821;23;20013;-60
2021/05/11 04:44:48;;;;;;;21.13;14.90;;;;;;;;;;6184854;23;20324;-60
2021/05/11 04:47:19;;;;;;;19.80;13.03;;;;;;;;;;6185104;23;20005;-61
2021/05/11 04:49:46;;;;;;;20.40;15.97;;;;;;;;;;6186657;23;20001;-61
2021/05/11 04:52:13;;;;;;;20.17;16.47;;;;;;;;;;6186662;23;20005;-59
2021/05/11 04:54:40;;;;;;;24.27;16.37;;;;;;;;;;6186677;23;20009;-61
2021/05/11 04:57:07;;;;;;;19.07;15.90;;;;;;;;;;6186679;23;20001;-60
2021/05/11 04:59:34;;;;;;;20.97;16.17;;;;;;;;;;6186606;23;20011;-61
2021/05/11 05:02:02;;;;;;;21.73;16.43;;;;;;;;;;6186542;23;20009;-61
2021/05/11 05:04:32;;;;;;;18.60;16.17;;;;;;;;;;6186516;23;20325;-61
2021/05/11 05:06:59;;;;;;;22.57;17.90;;;;;;;;;;6186439;23;20318;-61
2021/05/11 05:09:26;;;;;;;17.83;15.80;;;;;;;;;;6186480;23;20005;-61
2021/05/11 05:11:52;;;;;;;24.97;17.43;;;;;;;;;;6186501;23;20005;-61
2021/05/11 05:14:19;;;;;;;21.33;17.10;;;;;;;;;;6186451;23;20002;-61
2021/05/11 05:16:46;;;;;;;20.43;15.63;;;;;;;;;;6186294;23;20069;-61
2021/05/11 05:19:13;;;;;;;18.67;15.40;;;;;;;;;;6186132;23;20453;-61
2021/05/11 05:21:41;;;;;;;17.13;14.73;;;;;;;;;;6187427;23;20029;-61
2021/05/11 05:24:17;;;;;;;20.10;15.87;;;;;;;;;;6186470;23;20004;-61
2021/05/11 05:26:49;;;;;;;21.43;16.00;;;;;;;;;;6186384;23;20124;-61
2021/05/11 05:29:16;;;;;;;23.10;16.30;;;;;;;;;;6186465;23;20040;-61
2021/05/11 05:31:43;;;;;;;21.50;16.23;;;;;;;;;;6186352;23;20537;-61
2021/05/11 05:34:10;;;;;;;19.20;17.03;;;;;;;;;;6186143;23;20004;-61
2021/05/11 05:36:37;;;;;;;17.93;16.03;;;;;;;;;;6186315;23;20009;-57
2021/05/11 05:39:04;;;;;;;18.23;15.23;;;;;;;;;;6186143;23;20047;-57
2021/05/11 05:41:33;;;;;;;18.70;15.50;;;;;;;;;;6185989;23;20092;-57
2021/05/11 05:44:00;;;;;;;15.77;13.93;;;;;;;;;;6186115;23;20009;-57
2021/05/11 05:46:27;;;;;;;19.77;14.03;;;;;;;;;;6186175;23;20009;-57
2021/05/11 05:48:54;;;;;;;18.47;14.13;;;;;;;;;;6186043;23;20012;-57
2021/05/11 05:51:21;;;;;;;18.10;15.07;;;;;;;;;;6186076;23;20072;-57
2021/05/11 05:53:48;;;;;;;21.83;14.17;;;;;;;;;;6186199;23;20012;-57
2021/05/11 05:56:16;;;;;;;20.00;15.53;;;;;;;;;;6186128;23;19997;-57
2021/05/11 05:58:42;;;;;;;18.30;13.77;;;;;;;;;;6186106;23;20013;-57
2021/05/11 06:01:10;;;;;;;17.13;13.67;;;;;;;;;;6185838;23;20024;-56
2021/05/11 06:03:51;;;;;;;15.77;13.30;;;;;;;;;;6185929;23;20012;-56
2021/05/11 06:06:19;;;;;;;16.67;12.73;;;;;;;;;;6185948;23;20027;-56
2021/05/11 06:08:47;;;;;;;17.17;13.47;;;;;;;;;;6185525;23;19997;-57
2021/05/11 06:14:06;;;;;;;17.83;15.03;;;;;;;;;;6195922;23;20067;-57
2021/05/11 06:19:17;;;;;;;;;;;;;;;;;;6186390;23;20012;-57
2021/05/11 06:21:44;;;;;;;18.57;13.20;;;;;;;;;;6186994;23;19912;-57
2021/05/11 06:24:11;;;;;;;15.33;12.63;;;;;;;;;;6185879;23;20475;-57
2021/05/11 06:26:37;;;;;;;16.50;12.53;;;;;;;;;;6185712;23;20298;-56
2021/05/11 06:29:07;;;;;;;18.13;13.33;;;;;;;;;;6185604;23;20360;-56
2021/05/11 06:31:34;;;;;;;17.23;13.03;;;;;;;;;;6185684;23;20005;-57
2021/05/11 06:34:02;;;;;;;17.60;11.93;;;;;;;;;;6159226;23;20428;-57
2021/05/11 06:36:29;;;;;;;13.93;11.83;;;;;;;;;;6185674;23;20352;-57
2021/05/11 06:38:56;;;;;;;17.77;13.33;;;;;;;;;;6185661;23;20116;-57
2021/05/11 06:41:22;;;;;;;13.87;11.60;;;;;;;;;;6185409;23;20020;-57
2021/05/11 06:43:55;;;;;;;16.87;12.43;;;;;;;;;;6185681;23;20328;-56
2021/05/11 06:49:12;;;;;;;14.47;11.87;;;;;;;;;;6185985;23;20016;-57
2021/05/11 06:54:11;;;;;;;14.87;11.63;;;;;;;;;;6185578;23;20020;-57
2021/05/11 06:56:41;;;;;;;14.83;12.03;;;;;;;;;;6185602;23;20009;-57
2021/05/11 06:59:08;;;;;;;14.53;11.83;;;;;;;;;;6185338;23;20005;-57
2021/05/11 07:01:34;;;;;;;15.00;10.87;;;;;;;;;;6185551;23;20092;-57
2021/05/11 07:04:01;;;;;;;12.70;11.27;;;;;;;;;;6185393;23;20321;-57
2021/05/11 07:06:28;;;;;;;16.63;11.50;;;;;;;;;;6185422;23;20364;-57
2021/05/11 07:09:00;;;;;;;19.93;13.00;;;;;;;;;;6185385;23;20008;-57
2021/05/11 07:13:07;;;;;;;16.60;12.87;;;;;;;;;;6185241;23;20005;-57
2021/05/11 07:14:16;;;;;;;16.47;13.87;;;;;;;;;;6184706;23;20048;-56
2021/05/11 07:16:43;;;;;;;16.40;12.23;;;;;;;;;;6185275;23;20012;-57
2021/05/11 07:19:10;;;;;;;14.70;12.50;;;;;;;;;;6185003;23;20005;-56
2021/05/11 07:21:37;;;;;;;16.03;12.53;;;;;;;;;;6186302;23;20513;-56
2021/05/11 07:24:05;;;;;;;16.47;12.80;;;;;;;;;;6185347;23;20001;-56
2021/05/11 07:26:32;;;;;;;15.63;13.23;;;;;;;;;;6185205;23;20080;-57
2021/05/11 07:31:30;;;;;;;15.87;11.53;;;;;;;;;;6185596;23;20041;-57
2021/05/11 07:33:57;;;;;;;15.53;12.20;;;;;;;;;;6185620;23;20036;-57
2021/05/11 07:36:25;;;;;;;15.43;12.47;;;;;;;;;;6185272;23;20042;-56
2021/05/11 07:38:53;;;;;;;16.80;13.87;;;;;;;;;;6185127;23;20068;-56
2021/05/11 07:41:20;;;;;;;16.00;12.87;;;;;;;;;;6185230;23;20047;-56
2021/05/11 07:43:52;;;;;;;16.30;13.83;;;;;;;;;;6185314;23;20005;-56
2021/05/11 08:03:04;;;;;;;15.10;12.07;;;;;;;;;;6185188;23;20027;-57
2021/05/11 08:05:23;;;;;;;19.07;13.07;;;;;;;;;;6184814;23;20059;-57
2021/05/11 08:15:53;;;;;;;14.10;11.40;;;;;;;;;;6185099;23;20096;-57
2021/05/11 08:18:41;;;;;;;17.27;13.80;;;;;;;;;;6184937;23;20208;-57
2021/05/11 08:29:23;;;;;;;13.55;10.85;;;;;;;;;;6187014;23;20059;-56
2021/05/11 08:31:50;;;;;;;16.33;11.73;;;;;;;;;;6186841;23;20306;-57
2021/05/11 08:34:16;;;;;;;15.37;12.43;;;;;;;;;;6186863;23;20001;-57
2021/05/11 08:36:43;;;;;;;15.07;11.73;;;;;;;;;;6186947;23;20005;-56
2021/05/11 08:39:10;;;;;;;15.67;12.60;;;;;;;;;;6186602;23;20012;-57
2021/05/11 08:41:37;;;;;;;15.60;13.93;;;;;;;;;;6160303;23;20023;-56
2021/05/11 08:44:04;;;;;;;15.20;12.73;;;;;;;;;;6186783;23;20005;-56
2021/05/11 08:46:31;;;;;;;14.93;13.33;;;;;;;;;;6186688;23;20028;-57
2021/05/11 08:49:03;;;;;;;17.40;13.93;;;;;;;;;;6186602;23;20080;-56
2021/05/11 08:51:35;;;;;;;16.97;13.70;;;;;;;;;;6186573;23;20407;-56
2021/05/11 08:54:21;;;;;;;16.17;12.20;;;;;;;;;;6186604;23;20005;-57
2021/05/11 09:05:11;;;;;;;14.47;12.03;;;;;;;;;;6186682;23;20333;-57
2021/05/11 09:07:48;;;;;;;16.87;13.40;;;;;;;;;;6186447;23;20012;-57
2021/05/11 09:16:03;;;;;;;12.77;10.67;;;;;;;;;;6186546;23;20452;-56
2021/05/11 09:29:45;;;;;;;15.07;12.60;;;;;;;;;;6186398;23;20337;-56
2021/05/11 10:44:27;;;;;;;14.97;10.50;;;;;;;;;;6185977;23;20009;-56
2021/05/11 10:46:58;;;;;;;12.70;10.30;;;;;;;;;;6185297;23;20009;-57
2021/05/11 10:49:35;;;;;;;11.77;9.77;;;;;;;;;;6185445;23;20029;-56
2021/05/11 10:54:58;;;;;;;13.70;10.00;;;;;;;;;;6185738;23;20041;-57
2021/05/11 10:58:06;;;;;;;12.43;10.60;;;;;;;;;;6185367;23;19997;-56
2021/05/11 11:00:32;;;;;;;12.00;10.20;;;;;;;;;;6181303;23;20062;-56
2021/05/11 11:03:13;;;;;;;12.98;10.77;;;;;;;;;;6185426;23;20013;-56
2021/05/11 11:06:02;;;;;;;11.83;9.80;;;;;;;;;;6185226;23;20440;-57
2021/05/11 11:08:33;;;;;;;11.47;9.60;;;;;;;;;;6185355;23;20012;-56
2021/05/11 11:11:21;;;;;;;11.10;8.80;;;;;;;;;;6185233;23;20417;-57
2021/05/11 11:13:50;;;;;;;11.50;9.67;;;;;;;;;;6185458;23;20008;-56
2021/05/11 11:16:17;;;;;;;15.80;11.37;;;;;;;;;;6185440;23;20000;-56
2021/05/11 11:18:44;;;;;;;12.47;9.73;;;;;;;;;;6185355;23;19997;-57
2021/05/11 11:23:48;;;;;;;11.63;9.80;;;;;;;;;;6185438;23;20063;-56
2021/05/11 11:26:15;;;;;;;11.83;9.70;;;;;;;;;;6185270;23;20036;-56
2021/05/11 11:28:42;;;;;;;13.03;10.80;;;;;;;;;;6185092;23;20032;-57
2021/05/11 11:31:24;;;;;;;13.77;9.27;;;;;;;;;;6185295;23;20001;-56
2021/05/11 11:33:52;;;;;;;14.13;10.00;;;;;;;;;;6185137;23;20021;-56
2021/05/11 11:36:34;;;;;;;11.50;9.40;;;;;;;;;;6185265;23;20001;-57
2021/05/11 11:39:03;;;;;;;10.57;8.43;;;;;;;;;;6185159;23;20005;-56
2021/05/11 11:41:29;;;;;;;10.03;8.10;;;;;;;;;;6185155;23;20036;-56
2021/05/11 11:43:56;;;;;;;12.27;9.23;;;;;;;;;;6185286;23;20324;-56
2021/05/11 11:46:28;;;;;;;13.20;9.53;;;;;;;;;;6185010;23;20085;-57
2021/05/11 11:49:00;;;;;;;10.77;8.70;;;;;;;;;;6185137;23;20001;-56
2021/05/11 11:51:29;;;;;;;11.47;9.63;;;;;;;;;;6184998;23;20013;-56
2021/05/11 11:54:18;;;;;;;18.30;10.80;;;;;;;;;;6185088;23;20414;-56
2021/05/11 11:59:29;;;;;;;14.50;11.43;;;;;;;;;;6187286;23;20524;-56
2021/05/11 12:01:57;;;;;;;21.00;13.77;;;;;;;;;;6187044;23;20503;-56
2021/05/11 12:04:25;;;;;;;17.40;12.13;;;;;;;;;;6187029;23;20005;-56
2021/05/11 12:06:52;;;;;;;13.80;9.73;;;;;;;;;;6187421;23;20009;-56
2021/05/11 12:09:22;;;;;;;20.10;15.47;;;;;;;;;;6186834;23;20364;-56
2021/05/11 12:11:49;;;;;;;15.30;12.23;;;;;;;;;;6187014;23;20059;-56
2021/05/11 12:14:16;;;;;;;12.73;10.30;;;;;;;;;;6187154;23;19997;-56
2021/05/11 12:16:44;;;;;;;13.13;10.37;;;;;;;;;;6186967;23;20036;-56
2021/05/11 12:19:19;;;;;;;15.63;11.17;;;;;;;;;;6186925;23;20428;-56
2021/05/11 12:21:49;;;;;;;11.27;9.20;;;;;;;;;;6188528;22;20041;-56
2021/05/11 12:24:16;;;;;;;12.33;10.30;;;;;;;;;;6186835;23;20006;-56
2021/05/11 12:26:44;;;;;;;11.00;9.63;;;;;;;;;;6186884;23;20337;-56
2021/05/11 12:29:12;;;;;;;15.17;11.17;;;;;;;;;;6186658;23;20012;-56
2021/05/11 12:31:40;;;;;;;17.00;12.07;;;;;;;;;;6186928;23;20008;-56
2021/05/11 12:34:07;;;;;;;15.33;10.17;;;;;;;;;;6186797;23;20076;-56
2021/05/11 12:36:40;;;;;;;12.50;9.83;;;;;;;;;;6186843;23;20001;-56
2021/05/11 12:39:24;;;;;;;15.73;11.27;;;;;;;;;;6186852;23;20325;-56
2021/05/11 12:41:50;;;;;;;16.63;12.33;;;;;;;;;;6186640;23;20096;-56
2021/05/11 12:44:27;;;;;;;14.53;10.60;;;;;;;;;;6187138;23;19997;-56
2021/05/11 12:47:00;;;;;;;14.00;11.30;;;;;;;;;;6186825;23;20001;-57
2021/05/11 12:49:28;;;;;;;17.60;11.27;;;;;;;;;;6186687;23;20001;-59
2021/05/11 12:51:56;;;;;;;12.73;11.33;;;;;;;;;;6186676;23;20395;-59
2021/05/11 12:54:23;;;;;;;15.87;11.33;;;;;;;;;;6186727;23;20005;-59
2021/05/11 12:59:29;;;;;;;15.93;10.87;;;;;;;;;;6187208;23;20088;-59
2021/05/11 13:09:23;;;;;;;15.20;10.50;;;;;;;;;;6160318;23;20452;-59
2021/05/11 13:16:14;;;;;;;16.77;10.40;;;;;;;;;;6186646;23;20220;-63
2021/05/11 13:26:50;;;;;;;11.60;9.90;;;;;;;;;;6186558;23;20083;-63
2021/05/11 13:29:36;;;;;;;18.87;10.43;;;;;;;;;;6186197;23;20319;-63
2021/05/11 13:32:06;;;;;;;14.37;10.53;;;;;;;;;;6186146;23;20009;-64
2021/05/11 13:34:34;;;;;;;14.47;12.07;;;;;;;;;;6186204;23;20356;-64
2021/05/11 13:37:02;;;;;;;16.87;12.10;;;;;;;;;;6186285;23;20084;-64
2021/05/11 13:39:29;;;;;;;17.80;11.33;;;;;;;;;;6186308;23;20005;-64
2021/05/11 13:41:55;;;;;;;10.73;9.20;;;;;;;;;;6186393;23;20071;-64
2021/05/11 13:44:23;;;;;;;13.17;11.73;;;;;;;;;;6185991;23;20060;-64
2021/05/11 13:46:50;;;;;;;12.77;10.90;;;;;;;;;;6186274;23;20007;-64
2021/05/11 13:49:19;;;;;;;14.43;11.30;;;;;;;;;;6185977;23;20001;-64
2021/05/11 13:51:45;;;;;;;14.03;10.83;;;;;;;;;;6186053;23;20009;-64
2021/05/11 13:54:15;;;;;;;14.80;11.40;;;;;;;;;;6185953;23;20006;-64
2021/05/11 14:04:42;;;;;;;12.83;9.90;;;;;;;;;;6186236;23;19904;-64
2021/05/11 14:07:09;;;;;;;16.77;11.47;;;;;;;;;;6186114;23;20586;-64
2021/05/11 14:09:35;;;;;;;17.10;12.20;;;;;;;;;;6186141;23;20005;-64
2021/05/11 14:12:02;;;;;;;15.57;10.83;;;;;;;;;;6186073;23;20001;-64
2021/05/11 14:14:29;;;;;;;12.20;10.90;;;;;;;;;;6185986;23;20005;-64
2021/05/11 14:16:56;;;;;;;13.23;10.97;;;;;;;;;;6185926;23;20012;-64
2021/05/11 14:19:23;;;;;;;13.87;11.33;;;;;;;;;;6185681;23;20084;-64
2021/05/11 14:21:50;;;;;;;13.90;11.63;;;;;;;;;;6186697;23;20482;-64
2021/05/11 14:24:16;;;;;;;11.40;10.20;;;;;;;;;;6185887;23;20001;-65
2021/05/11 14:26:43;;;;;;;13.23;11.73;;;;;;;;;;6185863;23;20035;-65
2021/05/11 14:29:10;;;;;;;11.70;9.03;;;;;;;;;;6185804;23;20001;-65
2021/05/11 14:31:37;;;;;;;13.83;11.87;;;;;;;;;;6185848;23;20012;-65
2021/05/11 14:34:05;;;;;;;17.63;11.23;;;;;;;;;;6185594;23;20005;-65
2021/05/11 14:36:32;;;;;;;12.10;10.60;;;;;;;;;;6185798;23;20028;-65
2021/05/11 14:38:58;;;;;;;12.93;11.13;;;;;;;;;;6185534;23;20001;-65
2021/05/11 14:41:25;;;;;;;10.67;9.57;;;;;;;;;;6185479;23;20343;-65
2021/05/11 14:43:53;;;;;;;15.17;11.63;;;;;;;;;;6185558;23;20046;-65
2021/05/11 14:46:20;;;;;;;12.37;10.67;;;;;;;;;;6185925;23;20005;-65
2021/05/11 14:48:47;;;;;;;13.03;11.63;;;;;;;;;;6185642;23;20008;-65
2021/05/11 14:51:13;;;;;;;13.70;11.00;;;;;;;;;;6185357;23;20405;-65
2021/05/11 14:53:41;;;;;;;15.23;12.03;;;;;;;;;;6185584;23;20004;-65
2021/05/11 14:56:08;;;;;;;16.53;13.30;;;;;;;;;;6185891;23;20313;-65
2021/05/11 14:58:36;;;;;;;14.70;12.27;;;;;;;;;;6185520;23;20433;-65
2021/05/11 15:01:03;;;;;;;19.87;14.00;;;;;;;;;;6185252;23;20005;-65
2021/05/11 15:03:30;;;;;;;16.97;13.07;;;;;;;;;;6185821;23;20325;-65
2021/05/11 15:05:57;;;;;;;13.90;11.40;;;;;;;;;;6185503;23;20005;-64
2021/05/11 15:08:24;;;;;;;14.80;13.13;;;;;;;;;;6185425;23;20080;-65
2021/05/11 15:10:50;;;;;;;14.30;12.77;;;;;;;;;;6185427;23;20005;-65
2021/05/11 15:13:18;;;;;;;15.67;13.97;;;;;;;;;;6185393;23;20009;-64
2021/05/11 15:15:50;;;;;;;19.77;13.77;;;;;;;;;;6185409;23;20004;-65
2021/05/11 15:18:17;;;;;;;12.33;10.67;;;;;;;;;;6185360;23;20322;-65
2021/05/11 15:20:44;;;;;;;14.63;12.73;;;;;;;;;;6186098;23;20001;-65
2021/05/11 15:23:11;;;;;;;15.17;13.57;;;;;;;;;;6185249;23;20080;-65
2021/05/11 15:25:38;;;;;;;16.53;13.90;;;;;;;;;;6185333;23;20467;-64
2021/05/11 15:28:05;;;;;;;16.73;14.20;;;;;;;;;;6185118;23;20009;-64
2021/05/11 15:30:32;;;;;;;15.93;14.23;;;;;;;;;;6185186;23;20009;-65
2021/05/11 15:32:59;;;;;;;14.23;12.73;;;;;;;;;;6184915;23;20389;-65
2021/05/11 15:35:30;;;;;;;14.97;12.73;;;;;;;;;;6185233;23;20000;-65
2021/05/11 15:37:59;;;;;;;17.00;14.27;;;;;;;;;;6185132;23;20124;-65
2021/05/11 15:40:30;;;;;;;13.97;11.93;;;;;;;;;;6185238;23;20005;-65
2021/05/11 15:42:57;;;;;;;16.50;12.77;;;;;;;;;;6185498;23;20144;-65
2021/05/11 15:45:24;;;;;;;14.07;11.80;;;;;;;;;;6185267;23;20001;-65
2021/05/11 15:47:54;;;;;;;14.50;12.27;;;;;;;;;;6185245;23;20039;-65
2021/05/11 15:50:23;;;;;;;16.10;13.03;;;;;;;;;;6185067;23;20063;-65
2021/05/11 15:52:50;;;;;;;17.07;12.83;;;;;;;;;;6185125;23;20012;-65
2021/05/11 15:55:17;;;;;;;12.13;10.83;;;;;;;;;;6185023;23;20008;-65
2021/05/11 15:57:44;;;;;;;12.57;11.27;;;;;;;;;;6184985;23;20013;-65
2021/05/11 16:00:11;;;;;;;12.88;11.35;;;;;;;;;;6185006;23;20360;-65
2021/05/11 16:02:38;;;;;;;15.40;13.67;;;;;;;;;;6185010;23;20208;-65
2021/05/11 16:05:06;;;;;;;12.20;10.57;;;;;;;;;;6184989;23;19997;-65
2021/05/11 16:07:33;;;;;;;14.90;11.33;;;;;;;;;;6184946;23;20379;-65
2021/05/11 16:10:01;;;;;;;14.90;10.37;;;;;;;;;;6185121;23;20001;-65
2021/05/11 16:12:28;;;;;;;15.63;11.73;;;;;;;;;;6184982;23;20310;-65
2021/05/11 16:14:55;;;;;;;16.73;12.13;;;;;;;;;;6185009;23;20012;-65
2021/05/11 16:17:22;;;;;;;16.95;13.70;;;;;;;;;;6185004;23;20009;-65
2021/05/11 16:19:48;;;;;;;13.23;11.80;;;;;;;;;;6184823;23;20005;-65
2021/05/11 16:22:15;;;;;;;15.40;11.85;;;;;;;;;;6185953;23;20017;-65
2021/05/11 16:24:42;;;;;;;13.90;11.60;;;;;;;;;;6185011;23;20001;-65
2021/05/11 16:27:09;;;;;;;13.95;12.20;;;;;;;;;;6185257;23;20082;-65
2021/05/11 16:29:36;;;;;;;11.82;10.52;;;;;;;;;;6184862;23;20021;-65
2021/05/11 16:32:04;;;;;;;12.85;11.52;;;;;;;;;;6184890;23;20428;-65
2021/05/11 16:34:32;;;;;;;13.77;10.43;;;;;;;;;;6184883;23;20009;-63
2021/05/11 16:37:04;;;;;;;11.95;10.10;;;;;;;;;;6185042;23;20003;-63
2021/05/11 16:39:30;;;;;;;13.10;11.27;;;;;;;;;;6184787;23;20368;-63
2021/05/11 16:41:57;;;;;;;16.17;10.88;;;;;;;;;;6185087;23;20017;-63
2021/05/11 16:44:24;;;;;;;15.30;11.85;;;;;;;;;;6186131;23;19997;-63
2021/05/11 16:46:51;;;;;;;14.57;12.13;;;;;;;;;;6186861;23;20005;-63
2021/05/11 16:49:18;;;;;;;13.57;11.52;;;;;;;;;;6186514;23;20012;-63
2021/05/11 16:51:44;;;;;;;12.40;9.68;;;;;;;;;;6186606;23;20007;-63
2021/05/11 16:54:11;;;;;;;14.65;11.38;;;;;;;;;;6186565;23;20044;-63
2021/05/11 16:56:38;;;;;;;12.50;10.55;;;;;;;;;;6186712;23;20372;-63
2021/05/11 16:59:05;;;;;;;14.80;11.05;;;;;;;;;;6186733;23;19997;-63
2021/05/11 17:01:33;;;;;;;11.73;9.95;;;;;;;;;;6186465;23;20078;-63
2021/05/11 17:04:00;;;;;;;12.25;9.85;;;;;;;;;;6186413;23;20029;-63
2021/05/11 17:06:29;;;;;;;14.65;11.15;;;;;;;;;;6186386;23;20439;-63
2021/05/11 17:08:55;;;;;;;17.02;13.93;;;;;;;;;;6186521;23;20001;-63
2021/05/11 17:11:22;;;;;;;13.18;11.70;;;;;;;;;;6186397;23;20001;-63
2021/05/11 17:13:49;;;;;;;15.60;12.77;;;;;;;;;;6186862;23;20007;-63
2021/05/11 17:16:16;;;;;;;13.93;11.40;;;;;;;;;;6186410;23;20384;-63
2021/05/11 17:18:43;;;;;;;13.95;12.25;;;;;;;;;;6186249;23;20085;-63
2021/05/11 17:21:11;;;;;;;13.82;9.38;;;;;;;;;;6187489;22;20013;-63
2021/05/11 17:23:38;;;;;;;14.02;11.18;;;;;;;;;;6186325;23;20005;-63
2021/05/11 17:26:05;;;;;;;16.15;11.45;;;;;;;;;;6186441;23;20001;-63
2021/05/11 17:28:36;;;;;;;21.30;12.20;;;;;;;;;;6186314;23;20351;-63
2021/05/11 17:31:04;;;;;;;12.30;11.00;;;;;;;;;;6186318;23;20005;-63
2021/05/11 17:33:31;;;;;;;17.55;13.23;;;;;;;;;;6186343;23;20001;-64
2021/05/11 17:35:58;;;;;;;16.50;13.05;;;;;;;;;;6186174;23;20441;-63
2021/05/11 17:38:29;;;;;;;16.60;12.55;;;;;;;;;;6186121;23;20016;-63
2021/05/11 17:40:56;;;;;;;15.07;12.68;;;;;;;;;;6186075;23;20380;-63
2021/05/11 17:43:23;;;;;;;12.07;10.27;;;;;;;;;;6186206;23;20008;-64
2021/05/11 17:45:53;;;;;;;11.98;9.73;;;;;;;;;;6186176;23;20310;-64
2021/05/11 17:48:24;;;;;;;13.18;11.55;;;;;;;;;;6186170;23;20412;-64
2021/05/11 17:50:52;;;;;;;14.98;10.10;;;;;;;;;;6186241;23;20005;-64
2021/05/11 17:53:19;;;;;;;12.98;10.98;;;;;;;;;;6186167;23;20506;-64
2021/05/11 17:55:46;;;;;;;11.15;9.35;;;;;;;;;;6185648;23;20321;-64
2021/05/11 17:58:13;;;;;;;12.68;9.43;;;;;;;;;;6186120;23;20001;-64
2021/05/11 18:00:40;;;;;;;13.80;9.95;;;;;;;;;;6186508;23;20005;-64
2021/05/11 18:03:07;;;;;;;13.38;10.60;;;;;;;;;;6185825;23;20023;-63
2021/05/11 18:05:37;;;;;;;14.63;12.02;;;;;;;;;;6185985;23;20001;-64
2021/05/11 18:08:05;;;;;;;15.20;11.35;;;;;;;;;;6185850;23;20437;-64
2021/05/11 18:10:32;;;;;;;13.45;10.50;;;;;;;;;;6185873;23;20043;-64
2021/05/11 18:12:59;;;;;;;10.75;8.65;;;;;;;;;;6186121;23;20001;-64
2021/05/11 18:15:26;;;;;;;14.48;9.07;;;;;;;;;;6185836;23;20005;-64
2021/05/11 18:17:53;;;;;;;11.00;9.80;;;;;;;;;;6185670;23;20059;-64
2021/05/11 18:20:20;;;;;;;10.75;9.65;;;;;;;;;;6185869;23;20001;-64
2021/05/11 18:22:47;;;;;;;11.30;8.88;;;;;;;;;;6186695;23;20025;-63
2021/05/11 18:25:15;;;;;;;12.15;9.10;;;;;;;;;;6185673;23;20005;-64
2021/05/11 18:27:42;;;;;;;11.45;9.68;;;;;;;;;;6185763;23;20012;-64